sensor_id;sensor_type;location;lat;lon;timestamp;P1;durP1;ratioP1;P2;durP2;ratioP2
78308;SDS011;75657;42.022;21.356;2024-03-23T00:53:27;30.83;;;17.65;;
78308;SDS011;75657;42.022;21.356;2024-03-23T00:55:53;33.83;;;18.33;;
78308;SDS011;75657;42.022;21.356;2024-03-23T00:58:19;37.53;;;19.25;;
78308;SDS011;75657;42.022;21.356;2024-03-23T01:00:44;31.75;;;17.50;;
78308;SDS011;75657;42.022;21.356;2024-03-23T01:03:10;28.88;;;15.68;;
78308;SDS011;75657;42.022;21.356;2024-03-23T01:05:35;29.63;;;16.98;;
78308;SDS011;75657;42.022;21.356;2024-03-23T01:08:01;30.85;;;16.35;;
78308;SDS011;75657;42.022;21.356;2024-03-23T01:10:27;27.52;;;15.82;;
78308;SDS011;75657;42.022;21.356;2024-03-23T01:12:52;32.28;;;16.48;;
78308;SDS011;75657;42.022;21.356;2024-03-23T01:15:18;25.52;;;15.45;;
78308;SDS011;75657;42.022;21.356;2024-03-23T01:17:43;28.08;;;15.60;;
78308;SDS011;75657;42.022;21.356;2024-03-23T01:20:09;25.95;;;15.20;;
78308;SDS011;75657;42.022;21.356;2024-03-23T01:22:35;25.50;;;16.95;;
78308;SDS011;75657;42.022;21.356;2024-03-23T01:25:00;25.63;;;15.25;;
78308;SDS011;75657;42.022;21.356;2024-03-23T01:27:26;26.40;;;14.95;;
78308;SDS011;75657;42.022;21.356;2024-03-23T01:29:51;25.88;;;16.08;;
78308;SDS011;75657;42.022;21.356;2024-03-23T01:32:17;25.33;;;15.50;;
78308;SDS011;75657;42.022;21.356;2024-03-23T01:34:43;24.13;;;15.50;;
78308;SDS011;75657;42.022;21.356;2024-03-23T01:37:09;25.15;;;15.10;;
78308;SDS011;75657;42.022;21.356;2024-03-23T01:39:35;26.35;;;16.60;;
78308;SDS011;75657;42.022;21.356;2024-03-23T01:42:00;27.00;;;15.25;;
78308;SDS011;75657;42.022;21.356;2024-03-23T01:44:26;24.05;;;13.65;;
78308;SDS011;75657;42.022;21.356;2024-03-23T01:46:51;20.58;;;12.93;;
78308;SDS011;75657;42.022;21.356;2024-03-23T01:49:36;28.45;;;16.58;;
78308;SDS011;75657;42.022;21.356;2024-03-23T01:52:02;28.58;;;16.70;;
78308;SDS011;75657;42.022;21.356;2024-03-23T01:54:28;23.25;;;13.80;;
78308;SDS011;75657;42.022;21.356;2024-03-23T01:56:54;24.02;;;13.80;;
78308;SDS011;75657;42.022;21.356;2024-03-23T01:59:21;22.30;;;14.68;;
78308;SDS011;75657;42.022;21.356;2024-03-23T02:01:46;26.33;;;15.30;;
78308;SDS011;75657;42.022;21.356;2024-03-23T02:04:12;28.77;;;15.88;;
78308;SDS011;75657;42.022;21.356;2024-03-23T02:06:37;24.83;;;14.13;;
78308;SDS011;75657;42.022;21.356;2024-03-23T02:09:03;21.40;;;13.43;;
78308;SDS011;75657;42.022;21.356;2024-03-23T02:11:28;21.98;;;14.63;;
78308;SDS011;75657;42.022;21.356;2024-03-23T02:13:54;25.63;;;15.18;;
78308;SDS011;75657;42.022;21.356;2024-03-23T02:16:19;26.65;;;16.15;;
78308;SDS011;75657;42.022;21.356;2024-03-23T02:18:45;22.95;;;14.02;;
78308;SDS011;75657;42.022;21.356;2024-03-23T02:21:10;23.67;;;14.27;;
78308;SDS011;75657;42.022;21.356;2024-03-23T02:23:36;25.25;;;15.30;;
78308;SDS011;75657;42.022;21.356;2024-03-23T02:26:01;26.23;;;16.05;;
78308;SDS011;75657;42.022;21.356;2024-03-23T02:28:27;21.85;;;12.43;;
78308;SDS011;75657;42.022;21.356;2024-03-23T02:30:52;24.13;;;15.18;;
78308;SDS011;75657;42.022;21.356;2024-03-23T02:33:17;21.88;;;13.10;;
78308;SDS011;75657;42.022;21.356;2024-03-23T02:35:43;24.70;;;13.95;;
78308;SDS011;75657;42.022;21.356;2024-03-23T02:38:10;18.70;;;12.52;;
78308;SDS011;75657;42.022;21.356;2024-03-23T02:40:35;26.35;;;15.35;;
78308;SDS011;75657;42.022;21.356;2024-03-23T02:43:02;23.10;;;13.57;;
78308;SDS011;75657;42.022;21.356;2024-03-23T02:45:27;24.95;;;14.65;;
78308;SDS011;75657;42.022;21.356;2024-03-23T02:47:53;22.55;;;13.88;;
78308;SDS011;75657;42.022;21.356;2024-03-23T02:50:19;26.02;;;15.13;;
78308;SDS011;75657;42.022;21.356;2024-03-23T02:52:45;27.92;;;17.25;;
78308;SDS011;75657;42.022;21.356;2024-03-23T02:55:11;29.27;;;18.15;;
78308;SDS011;75657;42.022;21.356;2024-03-23T02:57:36;26.77;;;16.38;;
78308;SDS011;75657;42.022;21.356;2024-03-23T03:00:02;26.52;;;15.93;;
78308;SDS011;75657;42.022;21.356;2024-03-23T03:02:28;28.50;;;17.75;;
78308;SDS011;75657;42.022;21.356;2024-03-23T03:04:54;29.38;;;17.20;;
78308;SDS011;75657;42.022;21.356;2024-03-23T03:07:19;31.13;;;17.75;;
78308;SDS011;75657;42.022;21.356;2024-03-23T03:09:45;31.38;;;16.20;;
78308;SDS011;75657;42.022;21.356;2024-03-23T03:12:10;28.60;;;16.48;;
78308;SDS011;75657;42.022;21.356;2024-03-23T03:14:36;32.30;;;18.80;;
78308;SDS011;75657;42.022;21.356;2024-03-23T03:17:01;27.33;;;17.85;;
78308;SDS011;75657;42.022;21.356;2024-03-23T03:19:27;31.90;;;18.40;;
78308;SDS011;75657;42.022;21.356;2024-03-23T03:21:52;26.73;;;17.98;;
78308;SDS011;75657;42.022;21.356;2024-03-23T03:24:18;27.65;;;18.67;;
78308;SDS011;75657;42.022;21.356;2024-03-23T03:26:43;31.13;;;18.10;;
78308;SDS011;75657;42.022;21.356;2024-03-23T03:29:09;31.13;;;18.83;;
78308;SDS011;75657;42.022;21.356;2024-03-23T03:31:35;33.38;;;21.67;;
78308;SDS011;75657;42.022;21.356;2024-03-23T03:34:01;32.42;;;19.85;;
78308;SDS011;75657;42.022;21.356;2024-03-23T03:36:27;29.98;;;19.63;;
78308;SDS011;75657;42.022;21.356;2024-03-23T03:38:53;30.52;;;18.48;;
78308;SDS011;75657;42.022;21.356;2024-03-23T03:41:18;22.23;;;12.57;;
78308;SDS011;75657;42.022;21.356;2024-03-23T03:43:44;26.95;;;15.20;;
78308;SDS011;75657;42.022;21.356;2024-03-23T03:46:09;31.08;;;19.92;;
78308;SDS011;75657;42.022;21.356;2024-03-23T03:48:36;31.85;;;19.77;;
78308;SDS011;75657;42.022;21.356;2024-03-23T03:51:01;30.23;;;18.95;;
78308;SDS011;75657;42.022;21.356;2024-03-23T03:53:27;34.90;;;21.95;;
78308;SDS011;75657;42.022;21.356;2024-03-23T03:55:52;37.13;;;21.73;;
78308;SDS011;75657;42.022;21.356;2024-03-23T03:58:18;33.15;;;21.50;;
78308;SDS011;75657;42.022;21.356;2024-03-23T04:00:43;35.88;;;21.40;;
78308;SDS011;75657;42.022;21.356;2024-03-23T04:03:09;35.03;;;22.33;;
78308;SDS011;75657;42.022;21.356;2024-03-23T04:05:34;31.40;;;19.17;;
78308;SDS011;75657;42.022;21.356;2024-03-23T04:08:00;26.48;;;16.55;;
78308;SDS011;75657;42.022;21.356;2024-03-23T04:10:25;26.98;;;16.02;;
78308;SDS011;75657;42.022;21.356;2024-03-23T04:12:51;26.65;;;14.55;;
78308;SDS011;75657;42.022;21.356;2024-03-23T04:15:17;20.70;;;11.75;;
78308;SDS011;75657;42.022;21.356;2024-03-23T04:17:43;18.35;;;11.23;;
78308;SDS011;75657;42.022;21.356;2024-03-23T04:20:08;21.25;;;11.27;;
78308;SDS011;75657;42.022;21.356;2024-03-23T04:22:39;20.30;;;11.77;;
78308;SDS011;75657;42.022;21.356;2024-03-23T04:25:05;18.35;;;11.02;;
78308;SDS011;75657;42.022;21.356;2024-03-23T04:27:35;18.00;;;10.88;;
78308;SDS011;75657;42.022;21.356;2024-03-23T04:30:02;17.48;;;10.07;;
78308;SDS011;75657;42.022;21.356;2024-03-23T04:32:29;19.58;;;10.48;;
78308;SDS011;75657;42.022;21.356;2024-03-23T04:34:55;18.48;;;10.98;;
78308;SDS011;75657;42.022;21.356;2024-03-23T04:37:21;18.73;;;9.80;;
78308;SDS011;75657;42.022;21.356;2024-03-23T04:39:47;17.67;;;10.30;;
78308;SDS011;75657;42.022;21.356;2024-03-23T04:42:14;18.75;;;12.13;;
78308;SDS011;75657;42.022;21.356;2024-03-23T04:44:40;22.48;;;10.02;;
78308;SDS011;75657;42.022;21.356;2024-03-23T04:47:05;20.05;;;11.95;;
78308;SDS011;75657;42.022;21.356;2024-03-23T04:49:31;15.93;;;9.88;;
78308;SDS011;75657;42.022;21.356;2024-03-23T04:51:56;17.83;;;10.60;;
78308;SDS011;75657;42.022;21.356;2024-03-23T04:54:22;20.60;;;10.95;;
78308;SDS011;75657;42.022;21.356;2024-03-23T04:56:47;16.35;;;9.75;;
78308;SDS011;75657;42.022;21.356;2024-03-23T04:59:13;14.02;;;8.75;;
78308;SDS011;75657;42.022;21.356;2024-03-23T05:01:38;18.70;;;9.10;;
78308;SDS011;75657;42.022;21.356;2024-03-23T05:04:06;17.60;;;9.68;;
78308;SDS011;75657;42.022;21.356;2024-03-23T05:06:32;15.65;;;9.85;;
78308;SDS011;75657;42.022;21.356;2024-03-23T05:08:59;18.48;;;10.32;;
78308;SDS011;75657;42.022;21.356;2024-03-23T05:11:24;14.73;;;9.43;;
78308;SDS011;75657;42.022;21.356;2024-03-23T05:13:50;15.38;;;8.70;;
78308;SDS011;75657;42.022;21.356;2024-03-23T05:16:16;19.13;;;10.68;;
78308;SDS011;75657;42.022;21.356;2024-03-23T05:18:41;14.02;;;9.45;;
78308;SDS011;75657;42.022;21.356;2024-03-23T05:21:07;16.65;;;10.20;;
78308;SDS011;75657;42.022;21.356;2024-03-23T05:23:32;15.40;;;9.38;;
78308;SDS011;75657;42.022;21.356;2024-03-23T05:25:58;16.48;;;9.95;;
78308;SDS011;75657;42.022;21.356;2024-03-23T05:28:23;13.98;;;9.27;;
78308;SDS011;75657;42.022;21.356;2024-03-23T05:30:55;16.52;;;10.73;;
78308;SDS011;75657;42.022;21.356;2024-03-23T05:33:22;14.25;;;8.55;;
78308;SDS011;75657;42.022;21.356;2024-03-23T05:35:55;16.20;;;8.75;;
78308;SDS011;75657;42.022;21.356;2024-03-23T05:38:22;14.85;;;9.18;;
78308;SDS011;75657;42.022;21.356;2024-03-23T05:40:54;19.38;;;9.52;;
78308;SDS011;75657;42.022;21.356;2024-03-23T05:43:23;32.92;;;18.67;;
78308;SDS011;75657;42.022;21.356;2024-03-23T05:45:59;45.25;;;24.48;;
78308;SDS011;75657;42.022;21.356;2024-03-23T05:48:26;105.70;;;53.15;;
78308;SDS011;75657;42.022;21.356;2024-03-23T05:50:53;28.00;;;17.17;;
78308;SDS011;75657;42.022;21.356;2024-03-23T05:53:19;69.45;;;33.20;;
78308;SDS011;75657;42.022;21.356;2024-03-23T05:55:48;41.70;;;18.75;;
78308;SDS011;75657;42.022;21.356;2024-03-23T05:58:15;31.25;;;16.60;;
78308;SDS011;75657;42.022;21.356;2024-03-23T06:00:41;25.17;;;13.95;;
78308;SDS011;75657;42.022;21.356;2024-03-23T06:03:07;26.05;;;13.50;;
78308;SDS011;75657;42.022;21.356;2024-03-23T06:05:33;24.48;;;14.77;;
78308;SDS011;75657;42.022;21.356;2024-03-23T06:07:59;22.98;;;15.02;;
78308;SDS011;75657;42.022;21.356;2024-03-23T06:10:24;24.33;;;15.45;;
78308;SDS011;75657;42.022;21.356;2024-03-23T06:12:49;21.63;;;13.70;;
78308;SDS011;75657;42.022;21.356;2024-03-23T06:15:17;26.77;;;15.52;;
78308;SDS011;75657;42.022;21.356;2024-03-23T06:17:43;29.33;;;15.82;;
78308;SDS011;75657;42.022;21.356;2024-03-23T06:20:09;25.42;;;14.77;;
78308;SDS011;75657;42.022;21.356;2024-03-23T06:22:35;25.17;;;13.98;;
78308;SDS011;75657;42.022;21.356;2024-03-23T06:25:01;23.38;;;13.50;;
78308;SDS011;75657;42.022;21.356;2024-03-23T06:27:26;18.30;;;12.00;;
78308;SDS011;75657;42.022;21.356;2024-03-23T06:29:52;20.15;;;11.55;;
78308;SDS011;75657;42.022;21.356;2024-03-23T06:32:17;17.10;;;9.02;;
78308;SDS011;75657;42.022;21.356;2024-03-23T06:34:43;15.70;;;9.98;;
78308;SDS011;75657;42.022;21.356;2024-03-23T06:37:09;17.15;;;9.50;;
78308;SDS011;75657;42.022;21.356;2024-03-23T06:39:38;17.00;;;10.20;;
78308;SDS011;75657;42.022;21.356;2024-03-23T06:42:04;14.85;;;9.98;;
78308;SDS011;75657;42.022;21.356;2024-03-23T06:44:29;16.42;;;10.60;;
78308;SDS011;75657;42.022;21.356;2024-03-23T06:46:55;15.98;;;10.85;;
78308;SDS011;75657;42.022;21.356;2024-03-23T06:49:22;18.55;;;12.30;;
78308;SDS011;75657;42.022;21.356;2024-03-23T06:51:48;16.05;;;10.85;;
78308;SDS011;75657;42.022;21.356;2024-03-23T06:54:13;14.80;;;10.05;;
78308;SDS011;75657;42.022;21.356;2024-03-23T06:56:39;15.38;;;11.05;;
78308;SDS011;75657;42.022;21.356;2024-03-23T06:59:05;19.17;;;10.80;;
78308;SDS011;75657;42.022;21.356;2024-03-23T07:01:31;16.02;;;10.10;;
78308;SDS011;75657;42.022;21.356;2024-03-23T07:03:56;13.48;;;9.20;;
78308;SDS011;75657;42.022;21.356;2024-03-23T07:06:22;16.27;;;10.18;;
78308;SDS011;75657;42.022;21.356;2024-03-23T07:08:47;14.20;;;8.57;;
78308;SDS011;75657;42.022;21.356;2024-03-23T07:11:18;15.15;;;9.13;;
78308;SDS011;75657;42.022;21.356;2024-03-23T07:13:45;14.57;;;9.38;;
78308;SDS011;75657;42.022;21.356;2024-03-23T07:16:10;14.90;;;8.93;;
78308;SDS011;75657;42.022;21.356;2024-03-23T07:18:36;11.63;;;8.60;;
78308;SDS011;75657;42.022;21.356;2024-03-23T07:21:01;14.25;;;9.55;;
78308;SDS011;75657;42.022;21.356;2024-03-23T07:23:27;13.10;;;9.75;;
78308;SDS011;75657;42.022;21.356;2024-03-23T07:28:27;16.52;;;9.70;;
78308;SDS011;75657;42.022;21.356;2024-03-23T07:31:06;16.80;;;9.50;;
78308;SDS011;75657;42.022;21.356;2024-03-23T07:33:34;15.63;;;10.77;;
78308;SDS011;75657;42.022;21.356;2024-03-23T07:36:01;13.98;;;9.30;;
78308;SDS011;75657;42.022;21.356;2024-03-23T07:38:28;14.48;;;9.43;;
78308;SDS011;75657;42.022;21.356;2024-03-23T07:41:04;14.70;;;9.73;;
78308;SDS011;75657;42.022;21.356;2024-03-23T07:43:33;16.83;;;10.18;;
78308;SDS011;75657;42.022;21.356;2024-03-23T07:46:00;17.60;;;10.43;;
78308;SDS011;75657;42.022;21.356;2024-03-23T07:48:26;13.30;;;9.80;;
78308;SDS011;75657;42.022;21.356;2024-03-23T07:53:23;18.13;;;11.07;;
78308;SDS011;75657;42.022;21.356;2024-03-23T07:55:58;13.02;;;8.75;;
78308;SDS011;75657;42.022;21.356;2024-03-23T07:58:26;17.17;;;10.80;;
78308;SDS011;75657;42.022;21.356;2024-03-23T08:00:52;18.35;;;10.40;;
78308;SDS011;75657;42.022;21.356;2024-03-23T08:03:18;17.48;;;10.70;;
78308;SDS011;75657;42.022;21.356;2024-03-23T08:05:44;17.67;;;10.95;;
78308;SDS011;75657;42.022;21.356;2024-03-23T08:08:09;15.63;;;9.85;;
78308;SDS011;75657;42.022;21.356;2024-03-23T08:10:36;15.63;;;10.20;;
78308;SDS011;75657;42.022;21.356;2024-03-23T08:13:02;14.38;;;9.32;;
78308;SDS011;75657;42.022;21.356;2024-03-23T08:15:29;14.52;;;9.07;;
78308;SDS011;75657;42.022;21.356;2024-03-23T08:17:58;16.02;;;9.30;;
78308;SDS011;75657;42.022;21.356;2024-03-23T08:20:24;14.70;;;10.63;;
78308;SDS011;75657;42.022;21.356;2024-03-23T08:22:50;14.70;;;11.00;;
78308;SDS011;75657;42.022;21.356;2024-03-23T08:25:15;15.40;;;10.05;;
78308;SDS011;75657;42.022;21.356;2024-03-23T08:27:41;19.48;;;12.23;;
78308;SDS011;75657;42.022;21.356;2024-03-23T08:30:09;15.82;;;10.80;;
78308;SDS011;75657;42.022;21.356;2024-03-23T08:32:36;13.18;;;8.82;;
78308;SDS011;75657;42.022;21.356;2024-03-23T08:35:01;16.65;;;11.15;;
78308;SDS011;75657;42.022;21.356;2024-03-23T08:37:27;16.50;;;11.30;;
78308;SDS011;75657;42.022;21.356;2024-03-23T08:39:52;14.63;;;9.85;;
78308;SDS011;75657;42.022;21.356;2024-03-23T08:42:18;19.02;;;11.60;;
78308;SDS011;75657;42.022;21.356;2024-03-23T08:44:43;21.08;;;13.18;;
78308;SDS011;75657;42.022;21.356;2024-03-23T08:47:11;17.88;;;9.73;;
78308;SDS011;75657;42.022;21.356;2024-03-23T08:49:37;17.45;;;11.48;;
78308;SDS011;75657;42.022;21.356;2024-03-23T08:52:02;16.70;;;11.15;;
78308;SDS011;75657;42.022;21.356;2024-03-23T08:54:28;15.07;;;10.10;;
78308;SDS011;75657;42.022;21.356;2024-03-23T08:56:56;14.75;;;10.38;;
78308;SDS011;75657;42.022;21.356;2024-03-23T08:59:21;20.23;;;11.30;;
78308;SDS011;75657;42.022;21.356;2024-03-23T09:01:48;16.45;;;10.57;;
78308;SDS011;75657;42.022;21.356;2024-03-23T09:04:14;18.75;;;11.63;;
78308;SDS011;75657;42.022;21.356;2024-03-23T09:06:42;15.27;;;10.77;;
78308;SDS011;75657;42.022;21.356;2024-03-23T09:09:07;22.00;;;12.73;;
78308;SDS011;75657;42.022;21.356;2024-03-23T09:11:33;25.90;;;13.77;;
78308;SDS011;75657;42.022;21.356;2024-03-23T09:13:58;22.23;;;13.20;;
78308;SDS011;75657;42.022;21.356;2024-03-23T09:16:24;18.35;;;11.45;;
78308;SDS011;75657;42.022;21.356;2024-03-23T09:18:49;15.77;;;9.80;;
78308;SDS011;75657;42.022;21.356;2024-03-23T09:21:15;18.17;;;11.15;;
78308;SDS011;75657;42.022;21.356;2024-03-23T09:23:43;16.10;;;10.38;;
78308;SDS011;75657;42.022;21.356;2024-03-23T09:26:08;20.42;;;11.50;;
78308;SDS011;75657;42.022;21.356;2024-03-23T09:28:34;20.90;;;11.57;;
78308;SDS011;75657;42.022;21.356;2024-03-23T09:31:03;19.92;;;11.07;;
78308;SDS011;75657;42.022;21.356;2024-03-23T09:33:40;16.92;;;10.45;;
78308;SDS011;75657;42.022;21.356;2024-03-23T09:36:06;21.00;;;10.77;;
78308;SDS011;75657;42.022;21.356;2024-03-23T09:38:32;19.88;;;10.27;;
78308;SDS011;75657;42.022;21.356;2024-03-23T09:40:58;24.05;;;11.80;;
78308;SDS011;75657;42.022;21.356;2024-03-23T09:43:24;15.20;;;10.15;;
78308;SDS011;75657;42.022;21.356;2024-03-23T09:45:50;21.20;;;11.98;;
78308;SDS011;75657;42.022;21.356;2024-03-23T09:48:18;24.73;;;13.73;;
78308;SDS011;75657;42.022;21.356;2024-03-23T09:50:45;19.88;;;11.48;;
78308;SDS011;75657;42.022;21.356;2024-03-23T09:53:11;15.93;;;10.20;;
78308;SDS011;75657;42.022;21.356;2024-03-23T09:55:38;20.60;;;10.43;;
78308;SDS011;75657;42.022;21.356;2024-03-23T09:58:05;15.75;;;11.43;;
78308;SDS011;75657;42.022;21.356;2024-03-23T10:00:34;20.88;;;11.90;;
78308;SDS011;75657;42.022;21.356;2024-03-23T10:03:00;15.13;;;9.85;;
78308;SDS011;75657;42.022;21.356;2024-03-23T10:05:27;17.40;;;11.10;;
78308;SDS011;75657;42.022;21.356;2024-03-23T10:07:53;16.13;;;10.50;;
78308;SDS011;75657;42.022;21.356;2024-03-23T10:10:19;16.33;;;10.13;;
78308;SDS011;75657;42.022;21.356;2024-03-23T10:12:49;15.27;;;10.38;;
78308;SDS011;75657;42.022;21.356;2024-03-23T10:15:18;15.75;;;10.15;;
78308;SDS011;75657;42.022;21.356;2024-03-23T10:17:53;15.98;;;9.00;;
78308;SDS011;75657;42.022;21.356;2024-03-23T10:20:19;13.65;;;8.60;;
78308;SDS011;75657;42.022;21.356;2024-03-23T10:22:49;18.00;;;9.23;;
78308;SDS011;75657;42.022;21.356;2024-03-23T10:25:16;15.77;;;9.38;;
78308;SDS011;75657;42.022;21.356;2024-03-23T10:27:42;12.45;;;8.73;;
78308;SDS011;75657;42.022;21.356;2024-03-23T10:30:12;14.73;;;7.95;;
78308;SDS011;75657;42.022;21.356;2024-03-23T10:32:41;12.82;;;7.88;;
78308;SDS011;75657;42.022;21.356;2024-03-23T10:35:17;14.07;;;8.55;;
78308;SDS011;75657;42.022;21.356;2024-03-23T10:37:44;14.68;;;9.13;;
78308;SDS011;75657;42.022;21.356;2024-03-23T10:40:11;13.98;;;8.70;;
78308;SDS011;75657;42.022;21.356;2024-03-23T10:42:38;13.05;;;8.02;;
78308;SDS011;75657;42.022;21.356;2024-03-23T10:45:05;12.43;;;7.95;;
78308;SDS011;75657;42.022;21.356;2024-03-23T10:47:39;11.75;;;7.50;;
78308;SDS011;75657;42.022;21.356;2024-03-23T10:50:05;12.27;;;8.10;;
78308;SDS011;75657;42.022;21.356;2024-03-23T10:52:32;13.77;;;7.90;;
78308;SDS011;75657;42.022;21.356;2024-03-23T10:54:58;12.95;;;9.23;;
78308;SDS011;75657;42.022;21.356;2024-03-23T11:00:02;10.82;;;7.20;;
78308;SDS011;75657;42.022;21.356;2024-03-23T11:02:29;10.45;;;8.02;;
78308;SDS011;75657;42.022;21.356;2024-03-23T11:04:55;11.25;;;6.65;;
78308;SDS011;75657;42.022;21.356;2024-03-23T11:09:52;11.23;;;7.55;;
78308;SDS011;75657;42.022;21.356;2024-03-23T11:14:50;11.50;;;6.80;;
78308;SDS011;75657;42.022;21.356;2024-03-23T11:25:02;15.02;;;6.97;;
78308;SDS011;75657;42.022;21.356;2024-03-23T11:27:28;11.88;;;7.90;;
78308;SDS011;75657;42.022;21.356;2024-03-23T11:29:54;11.80;;;6.68;;
78308;SDS011;75657;42.022;21.356;2024-03-23T11:32:19;10.40;;;6.35;;
78308;SDS011;75657;42.022;21.356;2024-03-23T11:34:44;9.95;;;6.70;;
78308;SDS011;75657;42.022;21.356;2024-03-23T11:37:10;9.05;;;6.18;;
78308;SDS011;75657;42.022;21.356;2024-03-23T11:39:35;10.38;;;6.15;;
78308;SDS011;75657;42.022;21.356;2024-03-23T11:42:01;9.10;;;6.15;;
78308;SDS011;75657;42.022;21.356;2024-03-23T11:44:26;8.77;;;5.85;;
78308;SDS011;75657;42.022;21.356;2024-03-23T11:46:52;9.93;;;6.03;;
78308;SDS011;75657;42.022;21.356;2024-03-23T11:49:24;9.30;;;6.20;;
78308;SDS011;75657;42.022;21.356;2024-03-23T11:51:52;8.18;;;5.35;;
78308;SDS011;75657;42.022;21.356;2024-03-23T11:54:25;7.40;;;5.35;;
78308;SDS011;75657;42.022;21.356;2024-03-23T11:56:58;6.95;;;5.22;;
78308;SDS011;75657;42.022;21.356;2024-03-23T12:02:15;7.93;;;5.43;;
78308;SDS011;75657;42.022;21.356;2024-03-23T12:04:43;11.23;;;5.35;;
78308;SDS011;75657;42.022;21.356;2024-03-23T12:07:15;6.63;;;4.72;;
78308;SDS011;75657;42.022;21.356;2024-03-23T12:09:45;9.65;;;4.65;;
78308;SDS011;75657;42.022;21.356;2024-03-23T12:12:18;8.57;;;5.28;;
78308;SDS011;75657;42.022;21.356;2024-03-23T12:14:44;7.05;;;4.55;;
78308;SDS011;75657;42.022;21.356;2024-03-23T12:17:14;8.10;;;4.63;;
78308;SDS011;75657;42.022;21.356;2024-03-23T12:19:40;8.05;;;5.75;;
78308;SDS011;75657;42.022;21.356;2024-03-23T12:22:07;9.25;;;5.45;;
78308;SDS011;75657;42.022;21.356;2024-03-23T12:24:33;8.48;;;5.70;;
78308;SDS011;75657;42.022;21.356;2024-03-23T12:27:02;11.15;;;5.22;;
78308;SDS011;75657;42.022;21.356;2024-03-23T12:29:30;9.05;;;4.80;;
78308;SDS011;75657;42.022;21.356;2024-03-23T12:31:59;6.57;;;4.88;;
78308;SDS011;75657;42.022;21.356;2024-03-23T12:34:25;6.82;;;4.63;;
78308;SDS011;75657;42.022;21.356;2024-03-23T12:36:51;8.95;;;4.95;;
78308;SDS011;75657;42.022;21.356;2024-03-23T12:39:17;10.77;;;8.20;;
78308;SDS011;75657;42.022;21.356;2024-03-23T12:41:43;6.95;;;4.72;;
78308;SDS011;75657;42.022;21.356;2024-03-23T12:44:08;8.10;;;4.40;;
78308;SDS011;75657;42.022;21.356;2024-03-23T12:46:36;6.65;;;4.22;;
78308;SDS011;75657;42.022;21.356;2024-03-23T12:49:02;7.25;;;4.20;;
78308;SDS011;75657;42.022;21.356;2024-03-23T12:51:28;10.18;;;4.70;;
78308;SDS011;75657;42.022;21.356;2024-03-23T12:53:54;7.38;;;4.22;;
78308;SDS011;75657;42.022;21.356;2024-03-23T12:56:19;7.95;;;4.55;;
78308;SDS011;75657;42.022;21.356;2024-03-23T12:58:45;5.68;;;4.22;;
78308;SDS011;75657;42.022;21.356;2024-03-23T13:01:10;7.85;;;4.25;;
78308;SDS011;75657;42.022;21.356;2024-03-23T13:03:36;6.88;;;4.30;;
78308;SDS011;75657;42.022;21.356;2024-03-23T13:06:02;10.60;;;4.38;;
78308;SDS011;75657;42.022;21.356;2024-03-23T13:08:32;5.57;;;3.80;;
78308;SDS011;75657;42.022;21.356;2024-03-23T13:10:58;8.00;;;3.78;;
78308;SDS011;75657;42.022;21.356;2024-03-23T13:13:23;6.13;;;4.13;;
78308;SDS011;75657;42.022;21.356;2024-03-23T13:15:51;6.53;;;3.58;;
78308;SDS011;75657;42.022;21.356;2024-03-23T13:18:17;5.55;;;3.83;;
78308;SDS011;75657;42.022;21.356;2024-03-23T13:20:42;6.32;;;3.45;;
78308;SDS011;75657;42.022;21.356;2024-03-23T13:23:08;7.65;;;3.95;;
78308;SDS011;75657;42.022;21.356;2024-03-23T13:25:34;8.75;;;3.58;;
78308;SDS011;75657;42.022;21.356;2024-03-23T13:27:59;7.65;;;3.72;;
78308;SDS011;75657;42.022;21.356;2024-03-23T13:30:26;5.97;;;3.80;;
78308;SDS011;75657;42.022;21.356;2024-03-23T13:32:51;10.70;;;4.00;;
78308;SDS011;75657;42.022;21.356;2024-03-23T13:35:17;7.75;;;4.03;;
78308;SDS011;75657;42.022;21.356;2024-03-23T13:37:43;7.25;;;4.82;;
78308;SDS011;75657;42.022;21.356;2024-03-23T13:40:08;6.93;;;4.07;;
78308;SDS011;75657;42.022;21.356;2024-03-23T13:42:34;9.63;;;3.90;;
78308;SDS011;75657;42.022;21.356;2024-03-23T13:44:59;9.23;;;3.90;;
78308;SDS011;75657;42.022;21.356;2024-03-23T13:47:25;6.15;;;4.15;;
78308;SDS011;75657;42.022;21.356;2024-03-23T13:49:50;5.80;;;4.07;;
78308;SDS011;75657;42.022;21.356;2024-03-23T13:52:16;7.13;;;3.65;;
78308;SDS011;75657;42.022;21.356;2024-03-23T13:54:43;6.28;;;3.88;;
78308;SDS011;75657;42.022;21.356;2024-03-23T13:57:11;8.05;;;3.97;;
78308;SDS011;75657;42.022;21.356;2024-03-23T13:59:36;6.80;;;4.40;;
78308;SDS011;75657;42.022;21.356;2024-03-23T14:02:02;7.72;;;4.00;;
78308;SDS011;75657;42.022;21.356;2024-03-23T14:04:28;6.63;;;4.43;;
78308;SDS011;75657;42.022;21.356;2024-03-23T14:06:53;6.38;;;4.05;;
78308;SDS011;75657;42.022;21.356;2024-03-23T14:09:19;8.05;;;4.20;;
78308;SDS011;75657;42.022;21.356;2024-03-23T14:11:47;10.73;;;4.18;;
78308;SDS011;75657;42.022;21.356;2024-03-23T14:14:14;6.45;;;3.80;;
78308;SDS011;75657;42.022;21.356;2024-03-23T14:16:43;5.18;;;3.75;;
78308;SDS011;75657;42.022;21.356;2024-03-23T14:19:09;6.40;;;3.92;;
78308;SDS011;75657;42.022;21.356;2024-03-23T14:21:34;7.25;;;3.63;;
78308;SDS011;75657;42.022;21.356;2024-03-23T14:24:00;5.68;;;4.05;;
78308;SDS011;75657;42.022;21.356;2024-03-23T14:26:29;8.30;;;4.00;;
78308;SDS011;75657;42.022;21.356;2024-03-23T14:28:54;6.88;;;3.67;;
78308;SDS011;75657;42.022;21.356;2024-03-23T14:31:20;6.53;;;4.07;;
78308;SDS011;75657;42.022;21.356;2024-03-23T14:33:45;6.78;;;3.88;;
78308;SDS011;75657;42.022;21.356;2024-03-23T14:36:14;6.03;;;4.22;;
78308;SDS011;75657;42.022;21.356;2024-03-23T14:41:07;10.30;;;4.55;;
78308;SDS011;75657;42.022;21.356;2024-03-23T14:43:33;6.28;;;3.67;;
78308;SDS011;75657;42.022;21.356;2024-03-23T14:46:11;6.63;;;4.53;;
78308;SDS011;75657;42.022;21.356;2024-03-23T14:48:38;7.32;;;4.15;;
78308;SDS011;75657;42.022;21.356;2024-03-23T14:51:04;7.28;;;4.70;;
78308;SDS011;75657;42.022;21.356;2024-03-23T14:53:31;7.53;;;3.95;;
78308;SDS011;75657;42.022;21.356;2024-03-23T14:56:01;5.80;;;3.47;;
78308;SDS011;75657;42.022;21.356;2024-03-23T14:58:27;7.22;;;4.47;;
78308;SDS011;75657;42.022;21.356;2024-03-23T15:00:59;10.18;;;4.45;;
78308;SDS011;75657;42.022;21.356;2024-03-23T15:03:28;5.00;;;3.47;;
78308;SDS011;75657;42.022;21.356;2024-03-23T15:05:54;6.35;;;4.20;;
78308;SDS011;75657;42.022;21.356;2024-03-23T15:08:20;6.05;;;3.75;;
78308;SDS011;75657;42.022;21.356;2024-03-23T15:10:46;6.47;;;3.92;;
78308;SDS011;75657;42.022;21.356;2024-03-23T15:13:11;7.35;;;3.40;;
78308;SDS011;75657;42.022;21.356;2024-03-23T15:15:38;5.00;;;3.13;;
78308;SDS011;75657;42.022;21.356;2024-03-23T15:18:06;4.88;;;3.45;;
78308;SDS011;75657;42.022;21.356;2024-03-23T15:20:32;5.85;;;3.47;;
78308;SDS011;75657;42.022;21.356;2024-03-23T15:23:00;6.40;;;3.55;;
78308;SDS011;75657;42.022;21.356;2024-03-23T15:25:27;4.72;;;2.92;;
78308;SDS011;75657;42.022;21.356;2024-03-23T15:27:52;5.18;;;3.63;;
78308;SDS011;75657;42.022;21.356;2024-03-23T15:30:19;6.88;;;3.95;;
78308;SDS011;75657;42.022;21.356;2024-03-23T15:32:45;5.90;;;3.85;;